Time;durP1;ratioP1;P1;durP2;ratioP2;P2;SDS_P1;SDS_P2;PMS_P1;PMS_P2;Temp;Humidity;BMP_temperature;BMP_pressure;BME280_temperature;BME280_humidity;BME280_pressure;Samples;Min_cycle;Max_cycle;Signal;HPM_P1;HPM_P2
2021/07/10 00:01:51;;;;;;;4.97;3.67;;;;;;;;;;5135566;27;20025;-65
2021/07/10 00:04:16;;;;;;;5.15;3.58;;;;;;;;;;5147637;27;20052;-65
2021/07/10 00:06:42;;;;;;;4.60;4.20;;;;;;;;;;5109333;28;20417;-65
2021/07/10 00:09:07;;;;;;;3.80;3.42;;;;;;;;;;5109386;28;20030;-65
2021/07/10 00:11:32;;;;;;;4.40;3.88;;;;;;;;;;5112212;28;20055;-65
2021/07/10 00:13:57;;;;;;;3.80;3.45;;;;;;;;;;5112948;28;20058;-65
2021/07/10 00:16:23;;;;;;;3.65;3.28;;;;;;;;;;5113505;28;20099;-65
2021/07/10 00:18:48;;;;;;;3.65;3.35;;;;;;;;;;5110349;28;20135;-65
2021/07/10 00:21:13;;;;;;;4.35;3.58;;;;;;;;;;5113472;28;20481;-65
2021/07/10 00:23:38;;;;;;;4.15;3.13;;;;;;;;;;5112479;28;20224;-65
2021/07/10 00:26:04;;;;;;;4.05;3.72;;;;;;;;;;5111989;28;20485;-65
2021/07/10 00:28:29;;;;;;;3.55;3.22;;;;;;;;;;5111079;28;20023;-65
2021/07/10 00:30:54;;;;;;;3.33;3.13;;;;;;;;;;5113523;28;20050;-65
2021/07/10 00:33:19;;;;;;;3.53;3.03;;;;;;;;;;5112878;28;20020;-65
2021/07/10 00:35:45;;;;;;;3.15;2.90;;;;;;;;;;5113971;27;20059;-65
2021/07/10 00:38:10;;;;;;;3.10;2.85;;;;;;;;;;5110956;28;20024;-65
2021/07/10 00:40:35;;;;;;;3.50;3.10;;;;;;;;;;5112930;28;20069;-65
2021/07/10 00:43:02;;;;;;;3.30;3.00;;;;;;;;;;5099963;28;20020;-65
2021/07/10 00:45:27;;;;;;;3.08;2.75;;;;;;;;;;5112071;28;20026;-65
2021/07/10 00:47:52;;;;;;;4.65;2.67;;;;;;;;;;5109377;28;20023;-65
2021/07/10 00:50:20;;;;;;;3.90;2.92;;;;;;;;;;5111982;28;20015;-65
2021/07/10 00:52:45;;;;;;;3.67;3.35;;;;;;;;;;5111004;28;20015;-65
2021/07/10 00:55:12;;;;;;;3.80;3.40;;;;;;;;;;5109895;28;20145;-65
2021/07/10 00:57:37;;;;;;;7.43;2.95;;;;;;;;;;5097754;28;20557;-65
2021/07/10 01:00:05;;;;;;;3.92;3.58;;;;;;;;;;5103918;28;20086;-65
2021/07/10 01:02:30;;;;;;;4.65;3.55;;;;;;;;;;5105570;28;20246;-65
2021/07/10 01:04:55;;;;;;;4.30;3.17;;;;;;;;;;5125770;27;20038;-65
2021/07/10 01:07:21;;;;;;;2.45;2.13;;;;;;;;;;5150126;27;20022;-65
2021/07/10 01:09:46;;;;;;;4.07;3.40;;;;;;;;;;5118854;27;20019;-65
2021/07/10 01:12:11;;;;;;;3.53;3.22;;;;;;;;;;5137273;27;20015;-65
2021/07/10 01:14:36;;;;;;;6.57;3.65;;;;;;;;;;5139998;27;20026;-65
2021/07/10 01:17:02;;;;;;;4.45;3.10;;;;;;;;;;5131490;27;20015;-65
2021/07/10 01:19:27;;;;;;;3.95;3.25;;;;;;;;;;5141985;27;20015;-65
2021/07/10 01:21:53;;;;;;;5.38;3.40;;;;;;;;;;5116765;27;20434;-65
2021/07/10 01:24:19;;;;;;;6.75;3.92;;;;;;;;;;5141759;27;20071;-64
2021/07/10 01:26:44;;;;;;;3.70;3.40;;;;;;;;;;5151704;27;20022;-64
2021/07/10 01:29:09;;;;;;;3.45;3.15;;;;;;;;;;5150360;27;20075;-65
2021/07/10 01:31:35;;;;;;;5.07;3.80;;;;;;;;;;5152499;27;20027;-65
2021/07/10 01:34:01;;;;;;;5.40;4.22;;;;;;;;;;5125074;27;20018;-65
2021/07/10 01:36:27;;;;;;;5.13;4.68;;;;;;;;;;5152030;27;20400;-64
2021/07/10 01:38:53;;;;;;;5.03;4.57;;;;;;;;;;5123369;27;20037;-65
2021/07/10 01:41:18;;;;;;;4.82;4.10;;;;;;;;;;5152780;27;20521;-65
2021/07/10 01:43:43;;;;;;;5.82;4.72;;;;;;;;;;5150038;27;20892;-65
2021/07/10 01:46:08;;;;;;;6.93;5.65;;;;;;;;;;5120896;27;20030;-65
2021/07/10 01:48:34;;;;;;;6.38;5.78;;;;;;;;;;5148297;27;20033;-64
2021/07/10 01:50:59;;;;;;;6.65;4.60;;;;;;;;;;5149008;27;20018;-65
2021/07/10 01:53:24;;;;;;;6.20;5.10;;;;;;;;;;5143738;27;20073;-65
2021/07/10 01:55:49;;;;;;;6.47;5.53;;;;;;;;;;5122446;27;20477;-64
2021/07/10 01:58:15;;;;;;;9.70;5.60;;;;;;;;;;5147933;27;20007;-64
2021/07/10 02:00:41;;;;;;;7.15;5.75;;;;;;;;;;5153051;27;20124;-64
2021/07/10 02:03:07;;;;;;;7.65;6.10;;;;;;;;;;5138100;27;20063;-64
2021/07/10 02:05:32;;;;;;;8.48;5.78;;;;;;;;;;5127212;27;20046;-64
2021/07/10 02:07:58;;;;;;;7.53;4.97;;;;;;;;;;5126290;27;20038;-64
2021/07/10 02:10:24;;;;;;;8.20;5.35;;;;;;;;;;5152737;27;20029;-64
2021/07/10 02:12:50;;;;;;;7.03;5.57;;;;;;;;;;5152608;27;20095;-64
2021/07/10 02:15:16;;;;;;;6.57;5.55;;;;;;;;;;5147071;27;20015;-64
2021/07/10 02:17:44;;;;;;;6.22;5.68;;;;;;;;;;5141372;27;20033;-64
2021/07/10 02:20:10;;;;;;;8.60;5.90;;;;;;;;;;5152807;27;20067;-64
2021/07/10 02:22:35;;;;;;;7.32;6.15;;;;;;;;;;5152669;27;20015;-65
2021/07/10 02:25:00;;;;;;;7.85;6.32;;;;;;;;;;5130819;27;20014;-64
2021/07/10 02:27:27;;;;;;;8.18;6.10;;;;;;;;;;5142618;27;20027;-64
2021/07/10 02:29:52;;;;;;;8.27;5.57;;;;;;;;;;5130339;27;20024;-64
2021/07/10 02:32:17;;;;;;;6.80;6.10;;;;;;;;;;5145004;27;20444;-64
2021/07/10 02:34:42;;;;;;;7.03;6.30;;;;;;;;;;5147207;27;20011;-64
2021/07/10 02:37:08;;;;;;;9.35;6.72;;;;;;;;;;5148363;27;20019;-64
2021/07/10 02:39:33;;;;;;;9.30;6.47;;;;;;;;;;5122119;27;20018;-64
2021/07/10 02:41:58;;;;;;;7.18;6.47;;;;;;;;;;5152692;27;20373;-64
2021/07/10 02:44:23;;;;;;;9.13;5.97;;;;;;;;;;5133270;27;20484;-64
2021/07/10 02:46:49;;;;;;;8.50;7.03;;;;;;;;;;5138204;27;20106;-64
2021/07/10 02:49:14;;;;;;;6.80;6.15;;;;;;;;;;5129513;28;20497;-64
2021/07/10 02:51:39;;;;;;;8.85;6.05;;;;;;;;;;5137303;27;20370;-64
2021/07/10 02:54:05;;;;;;;7.00;6.25;;;;;;;;;;5152022;27;20385;-64
2021/07/10 02:56:30;;;;;;;9.20;6.45;;;;;;;;;;5146275;27;20118;-64
2021/07/10 02:58:55;;;;;;;9.68;7.10;;;;;;;;;;5115073;27;20072;-64
2021/07/10 03:01:21;;;;;;;6.90;6.15;;;;;;;;;;5129152;27;20015;-64
2021/07/10 03:03:46;;;;;;;10.15;6.18;;;;;;;;;;5155656;27;20018;-64
2021/07/10 03:06:12;;;;;;;7.30;6.60;;;;;;;;;;5127903;27;20035;-64
2021/07/10 03:08:38;;;;;;;8.77;6.05;;;;;;;;;;5144875;27;20019;-64
2021/07/10 03:11:04;;;;;;;8.38;5.50;;;;;;;;;;5140057;27;20019;-64
2021/07/10 03:13:29;;;;;;;8.35;5.65;;;;;;;;;;5152742;27;20019;-64
2021/07/10 03:15:54;;;;;;;8.23;5.75;;;;;;;;;;5128779;27;20075;-64
2021/07/10 03:18:20;;;;;;;8.50;5.82;;;;;;;;;;5153012;27;20055;-64
2021/07/10 03:20:46;;;;;;;5.45;4.95;;;;;;;;;;5137530;27;20115;-64
2021/07/10 03:23:11;;;;;;;6.68;6.00;;;;;;;;;;5156093;27;20019;-64
2021/07/10 03:25:37;;;;;;;13.95;6.65;;;;;;;;;;5126853;27;20019;-64
2021/07/10 03:28:02;;;;;;;5.93;5.32;;;;;;;;;;5137234;27;20320;-64
2021/07/10 03:30:28;;;;;;;6.63;5.93;;;;;;;;;;5154442;27;20027;-64
2021/07/10 03:32:53;;;;;;;7.70;5.88;;;;;;;;;;5156544;27;20015;-64
2021/07/10 03:35:19;;;;;;;5.90;5.40;;;;;;;;;;5145159;27;20380;-64
2021/07/10 03:37:47;;;;;;;6.72;5.25;;;;;;;;;;5149174;27;20034;-64
2021/07/10 03:40:14;;;;;;;6.80;5.25;;;;;;;;;;5136854;27;20528;-64
2021/07/10 03:42:40;;;;;;;5.60;5.05;;;;;;;;;;5144914;27;20034;-64
2021/07/10 03:45:09;;;;;;;7.93;5.13;;;;;;;;;;5155478;27;20071;-64
2021/07/10 03:47:35;;;;;;;5.80;5.10;;;;;;;;;;5115242;27;20026;-64
2021/07/10 03:50:00;;;;;;;5.85;4.95;;;;;;;;;;5118957;27;20015;-64
2021/07/10 03:52:25;;;;;;;9.77;5.63;;;;;;;;;;5155192;27;20018;-64
2021/07/10 03:54:51;;;;;;;6.97;5.18;;;;;;;;;;5134208;27;20362;-64
2021/07/10 03:57:16;;;;;;;6.38;4.78;;;;;;;;;;5136378;27;20417;-65
2021/07/10 03:59:41;;;;;;;7.20;5.40;;;;;;;;;;5151103;27;20022;-64
2021/07/10 04:02:06;;;;;;;6.07;5.38;;;;;;;;;;5147405;27;20018;-64
2021/07/10 04:04:32;;;;;;;6.07;4.97;;;;;;;;;;5147256;27;20443;-64
2021/07/10 04:06:57;;;;;;;6.63;5.05;;;;;;;;;;5137099;27;20592;-65
2021/07/10 04:09:22;;;;;;;5.68;5.07;;;;;;;;;;5142549;27;20019;-64
2021/07/10 04:11:48;;;;;;;8.65;5.45;;;;;;;;;;5152221;27;20528;-65
2021/07/10 04:14:13;;;;;;;6.20;5.50;;;;;;;;;;5150545;27;20018;-64
2021/07/10 04:16:38;;;;;;;6.55;5.00;;;;;;;;;;5145411;27;20081;-64
2021/07/10 04:19:03;;;;;;;5.93;4.25;;;;;;;;;;5131599;27;20019;-65
2021/07/10 04:21:29;;;;;;;10.32;5.05;;;;;;;;;;5122008;27;20015;-64
2021/07/10 04:23:54;;;;;;;6.22;4.13;;;;;;;;;;5153326;27;20015;-65
2021/07/10 04:26:19;;;;;;;8.10;5.28;;;;;;;;;;5135729;27;20109;-65
2021/07/10 04:28:44;;;;;;;8.43;4.93;;;;;;;;;;5152245;27;20031;-64
2021/07/10 04:31:10;;;;;;;5.57;5.07;;;;;;;;;;5136433;27;20322;-64
2021/07/10 04:33:35;;;;;;;6.57;5.53;;;;;;;;;;5135626;27;20022;-64
2021/07/10 04:36:00;;;;;;;6.13;5.50;;;;;;;;;;5146843;27;20033;-64
2021/07/10 04:38:25;;;;;;;5.45;4.88;;;;;;;;;;5132254;27;20046;-64
2021/07/10 04:40:51;;;;;;;6.15;5.65;;;;;;;;;;5124624;27;20022;-64
2021/07/10 04:43:16;;;;;;;5.15;4.75;;;;;;;;;;5154384;27;20135;-64
2021/07/10 04:45:41;;;;;;;10.38;5.53;;;;;;;;;;5153445;27;20019;-64
2021/07/10 04:48:07;;;;;;;6.72;4.85;;;;;;;;;;5133132;27;20033;-64
2021/07/10 04:50:32;;;;;;;7.05;6.00;;;;;;;;;;5135701;27;20034;-64
2021/07/10 04:52:57;;;;;;;7.30;5.05;;;;;;;;;;5144981;27;20027;-64
2021/07/10 04:55:23;;;;;;;6.40;5.55;;;;;;;;;;5147533;27;20026;-64
2021/07/10 04:57:48;;;;;;;7.00;5.53;;;;;;;;;;5149677;27;20022;-64
2021/07/10 05:00:14;;;;;;;7.30;6.13;;;;;;;;;;5151871;27;20019;-64
2021/07/10 05:02:39;;;;;;;7.68;5.95;;;;;;;;;;5137088;27;20694;-64
2021/07/10 05:05:05;;;;;;;9.05;5.72;;;;;;;;;;5126144;27;20042;-65
2021/07/10 05:07:30;;;;;;;9.57;5.35;;;;;;;;;;5105587;28;20123;-64
2021/07/10 05:09:56;;;;;;;7.30;5.68;;;;;;;;;;5100544;28;20035;-64
2021/07/10 05:12:22;;;;;;;5.90;5.30;;;;;;;;;;5112839;27;20019;-64
2021/07/10 05:14:51;;;;;;;7.18;5.68;;;;;;;;;;5107211;28;20031;-64
2021/07/10 05:17:17;;;;;;;6.13;5.32;;;;;;;;;;5103080;28;20023;-64
2021/07/10 05:19:42;;;;;;;7.20;4.70;;;;;;;;;;5098425;28;20015;-64
2021/07/10 05:22:07;;;;;;;7.38;5.85;;;;;;;;;;5100217;28;20088;-64
2021/07/10 05:24:32;;;;;;;6.53;5.65;;;;;;;;;;5098777;28;20027;-64
2021/07/10 05:26:58;;;;;;;6.75;4.75;;;;;;;;;;5106689;28;20027;-64
2021/07/10 05:29:23;;;;;;;9.02;4.90;;;;;;;;;;5102420;28;20022;-64
2021/07/10 05:31:48;;;;;;;5.20;4.70;;;;;;;;;;5103218;28;20092;-64
2021/07/10 05:34:13;;;;;;;5.15;4.20;;;;;;;;;;5103453;28;20016;-64
2021/07/10 05:36:38;;;;;;;4.93;4.43;;;;;;;;;;5101087;28;20615;-64
2021/07/10 05:39:04;;;;;;;5.88;4.68;;;;;;;;;;5089960;28;20016;-64
2021/07/10 05:41:29;;;;;;;6.88;4.78;;;;;;;;;;5106340;28;20094;-64
2021/07/10 05:43:54;;;;;;;7.43;4.10;;;;;;;;;;5102507;28;20378;-64
2021/07/10 05:46:20;;;;;;;7.03;4.05;;;;;;;;;;5098335;28;20427;-65
2021/07/10 05:48:45;;;;;;;4.55;4.22;;;;;;;;;;5107650;28;20016;-65
2021/07/10 05:51:10;;;;;;;6.40;4.43;;;;;;;;;;5104475;28;20077;-64
2021/07/10 05:53:35;;;;;;;5.85;4.72;;;;;;;;;;5103530;28;20064;-64
2021/07/10 05:56:01;;;;;;;6.22;5.25;;;;;;;;;;5110239;28;20026;-64
2021/07/10 05:58:26;;;;;;;5.15;4.60;;;;;;;;;;5105593;28;20382;-64
2021/07/10 06:00:51;;;;;;;5.10;4.70;;;;;;;;;;5095895;28;20023;-64
2021/07/10 06:03:16;;;;;;;4.82;4.47;;;;;;;;;;5110744;28;20112;-64
2021/07/10 06:05:42;;;;;;;4.90;4.50;;;;;;;;;;5108428;28;20044;-64
2021/07/10 06:08:08;;;;;;;4.38;3.45;;;;;;;;;;5120934;27;20099;-64
2021/07/10 06:10:33;;;;;;;5.97;4.20;;;;;;;;;;5130971;28;20023;-64
2021/07/10 06:12:58;;;;;;;4.53;4.20;;;;;;;;;;5125320;28;20015;-64
2021/07/10 06:15:23;;;;;;;5.32;4.40;;;;;;;;;;5131908;28;20027;-64
2021/07/10 06:17:49;;;;;;;4.93;4.53;;;;;;;;;;5127937;28;20033;-64
2021/07/10 06:20:16;;;;;;;5.07;4.55;;;;;;;;;;5124888;28;20429;-64
2021/07/10 06:22:42;;;;;;;5.10;4.70;;;;;;;;;;5128812;28;20019;-63
2021/07/10 06:25:09;;;;;;;5.50;5.00;;;;;;;;;;5117840;27;20022;-63
2021/07/10 06:27:34;;;;;;;5.65;4.85;;;;;;;;;;5111874;27;20035;-63
2021/07/10 06:29:59;;;;;;;6.30;4.47;;;;;;;;;;5135251;27;20172;-64
2021/07/10 06:32:24;;;;;;;5.68;5.18;;;;;;;;;;5130211;27;20046;-64
2021/07/10 06:34:49;;;;;;;5.45;5.03;;;;;;;;;;5129158;27;20015;-64
2021/07/10 06:37:15;;;;;;;6.40;5.78;;;;;;;;;;5132773;27;20027;-63
2021/07/10 06:39:40;;;;;;;6.05;5.45;;;;;;;;;;5114537;27;20019;-64
2021/07/10 06:42:05;;;;;;;7.47;6.40;;;;;;;;;;5124593;27;20072;-64
2021/07/10 06:44:31;;;;;;;5.78;5.07;;;;;;;;;;5130796;27;20022;-64
2021/07/10 06:46:56;;;;;;;4.30;4.00;;;;;;;;;;5128472;27;20023;-63
2021/07/10 06:49:21;;;;;;;6.80;6.22;;;;;;;;;;5126745;27;20418;-63
2021/07/10 06:51:47;;;;;;;6.03;5.53;;;;;;;;;;5127256;27;20019;-63
2021/07/10 06:54:12;;;;;;;5.97;4.80;;;;;;;;;;5131408;27;20091;-62
2021/07/10 06:56:37;;;;;;;7.13;6.43;;;;;;;;;;5134662;27;20156;-63
2021/07/10 06:59:02;;;;;;;6.13;5.55;;;;;;;;;;5125630;27;20410;-63
2021/07/10 07:01:28;;;;;;;5.82;5.15;;;;;;;;;;5124044;27;20076;-63
2021/07/10 07:03:53;;;;;;;6.38;5.82;;;;;;;;;;5114927;27;20024;-63
2021/07/10 07:06:19;;;;;;;7.18;6.50;;;;;;;;;;5117872;27;20317;-63
2021/07/10 07:08:44;;;;;;;6.72;6.13;;;;;;;;;;5128071;27;20023;-63
2021/07/10 07:11:10;;;;;;;6.82;6.20;;;;;;;;;;5132587;27;20105;-62
2021/07/10 07:13:35;;;;;;;7.93;6.30;;;;;;;;;;5134876;27;20019;-63
2021/07/10 07:16:00;;;;;;;7.00;6.40;;;;;;;;;;5117643;27;20034;-63
2021/07/10 07:18:26;;;;;;;7.20;6.60;;;;;;;;;;5118175;27;20114;-63
2021/07/10 07:20:51;;;;;;;7.13;6.15;;;;;;;;;;5131354;27;20019;-63
2021/07/10 07:23:16;;;;;;;6.78;6.22;;;;;;;;;;5134873;27;20007;-63
2021/07/10 07:25:41;;;;;;;6.75;6.00;;;;;;;;;;5129500;27;20413;-63
2021/07/10 07:28:07;;;;;;;7.70;6.32;;;;;;;;;;5129072;27;20074;-63
2021/07/10 07:30:33;;;;;;;7.32;6.60;;;;;;;;;;5130806;27;20019;-62
2021/07/10 07:32:58;;;;;;;7.40;6.70;;;;;;;;;;5134120;27;20389;-62
2021/07/10 07:35:23;;;;;;;7.07;6.30;;;;;;;;;;5133572;27;20027;-62
2021/07/10 07:37:49;;;;;;;8.35;6.47;;;;;;;;;;5132107;27;20023;-63
2021/07/10 07:40:14;;;;;;;8.38;6.80;;;;;;;;;;5124765;27;20011;-62
2021/07/10 07:42:40;;;;;;;6.78;6.07;;;;;;;;;;5115656;27;20238;-62
2021/07/10 07:45:07;;;;;;;8.45;6.97;;;;;;;;;;5115051;28;20057;-64
2021/07/10 07:47:32;;;;;;;6.25;5.65;;;;;;;;;;5115898;27;20470;-63
2021/07/10 07:49:57;;;;;;;7.50;6.68;;;;;;;;;;5133148;27;20015;-63
2021/07/10 07:52:23;;;;;;;8.80;6.45;;;;;;;;;;5120447;27;20143;-63
2021/07/10 07:54:48;;;;;;;9.77;8.73;;;;;;;;;;5133299;27;20050;-63
2021/07/10 07:57:13;;;;;;;9.07;8.27;;;;;;;;;;5134840;27;20108;-64
2021/07/10 07:59:38;;;;;;;8.93;8.13;;;;;;;;;;5123590;27;20100;-64
2021/07/10 08:02:04;;;;;;;8.05;7.10;;;;;;;;;;5126483;27;20019;-63
2021/07/10 08:04:30;;;;;;;8.82;8.07;;;;;;;;;;5133283;27;20050;-63
2021/07/10 08:06:55;;;;;;;8.32;7.50;;;;;;;;;;5133821;27;20026;-63
2021/07/10 08:09:20;;;;;;;7.72;7.03;;;;;;;;;;5128927;27;20388;-63
2021/07/10 08:11:45;;;;;;;7.28;6.68;;;;;;;;;;5134714;27;20098;-63
2021/07/10 08:14:12;;;;;;;8.02;7.22;;;;;;;;;;5133754;27;20109;-63
2021/07/10 08:16:37;;;;;;;8.85;8.05;;;;;;;;;;5130326;27;20020;-63
2021/07/10 08:19:03;;;;;;;9.75;8.88;;;;;;;;;;5127649;27;20087;-63
2021/07/10 08:21:29;;;;;;;9.23;8.30;;;;;;;;;;5131980;27;20015;-63
2021/07/10 08:23:55;;;;;;;7.93;7.13;;;;;;;;;;5134732;27;20011;-63
2021/07/10 08:26:21;;;;;;;7.28;6.57;;;;;;;;;;5133933;27;20022;-63
2021/07/10 08:28:46;;;;;;;9.25;7.75;;;;;;;;;;5129826;27;20031;-63
2021/07/10 08:31:12;;;;;;;9.40;8.07;;;;;;;;;;5134478;27;20111;-63
2021/07/10 08:33:38;;;;;;;9.27;8.40;;;;;;;;;;5134481;27;20189;-63
2021/07/10 08:36:03;;;;;;;8.88;7.97;;;;;;;;;;5132363;27;20059;-63
2021/07/10 08:38:28;;;;;;;9.68;7.28;;;;;;;;;;5116485;27;20056;-63
2021/07/10 08:40:54;;;;;;;7.45;6.72;;;;;;;;;;5112196;28;20019;-63
2021/07/10 08:43:19;;;;;;;8.82;7.88;;;;;;;;;;5130794;27;20031;-63
2021/07/10 08:45:46;;;;;;;9.48;7.65;;;;;;;;;;5134370;27;20026;-64
2021/07/10 08:48:12;;;;;;;10.05;9.05;;;;;;;;;;5114351;27;20474;-63
2021/07/10 08:50:37;;;;;;;7.95;7.10;;;;;;;;;;5113585;28;20084;-63
2021/07/10 08:53:02;;;;;;;7.75;7.07;;;;;;;;;;5127399;27;20026;-63
2021/07/10 08:55:28;;;;;;;9.20;8.30;;;;;;;;;;5132475;27;20463;-63
2021/07/10 08:57:54;;;;;;;8.77;6.88;;;;;;;;;;5128800;27;20205;-63
2021/07/10 09:00:21;;;;;;;7.07;5.97;;;;;;;;;;5134048;27;20023;-62
2021/07/10 09:02:48;;;;;;;7.88;7.18;;;;;;;;;;5134108;27;20454;-62
2021/07/10 09:05:14;;;;;;;8.55;7.75;;;;;;;;;;5130502;27;20063;-63
2021/07/10 09:07:59;;;;;;;8.20;7.47;;;;;;;;;;5124405;27;20050;-63
2021/07/10 09:10:33;;;;;;;7.43;6.72;;;;;;;;;;5081492;27;20080;-63
2021/07/10 09:12:59;;;;;;;7.32;6.50;;;;;;;;;;5136292;27;20097;-63
2021/07/10 09:15:24;;;;;;;7.67;6.90;;;;;;;;;;5135292;27;20109;-63
2021/07/10 09:17:49;;;;;;;6.78;6.18;;;;;;;;;;5151273;27;20297;-63
2021/07/10 09:20:22;;;;;;;7.05;6.45;;;;;;;;;;5135344;27;20038;-63
2021/07/10 09:22:47;;;;;;;6.95;6.35;;;;;;;;;;5154429;27;20018;-63
2021/07/10 09:25:26;;;;;;;7.95;7.25;;;;;;;;;;5153445;27;20042;-64
2021/07/10 09:27:52;;;;;;;7.15;5.82;;;;;;;;;;5150899;27;20021;-64
2021/07/10 09:30:28;;;;;;;7.30;6.70;;;;;;;;;;5135081;27;20038;-63
2021/07/10 09:33:29;;;;;;;7.15;6.03;;;;;;;;;;5154063;27;20377;-63
2021/07/10 09:35:59;;;;;;;6.35;5.70;;;;;;;;;;5034810;28;20021;-64
2021/07/10 09:38:28;;;;;;;8.13;6.95;;;;;;;;;;5020579;28;20041;-63
2021/07/10 09:40:59;;;;;;;7.10;6.40;;;;;;;;;;5049483;28;20031;-63
2021/07/10 09:43:25;;;;;;;7.35;6.75;;;;;;;;;;5049872;28;20024;-64
2021/07/10 09:45:50;;;;;;;8.55;7.60;;;;;;;;;;5049106;28;20460;-64
2021/07/10 09:48:15;;;;;;;7.22;6.68;;;;;;;;;;5020440;28;20068;-63
2021/07/10 09:50:41;;;;;;;6.97;6.28;;;;;;;;;;5013079;28;20132;-63
2021/07/10 09:53:19;;;;;;;9.17;8.00;;;;;;;;;;5041714;28;20423;-63
2021/07/10 09:55:45;;;;;;;8.18;7.07;;;;;;;;;;5036243;28;20292;-63
2021/07/10 09:58:12;;;;;;;8.88;8.07;;;;;;;;;;5034736;28;20490;-63
2021/07/10 10:00:39;;;;;;;7.45;6.75;;;;;;;;;;5032942;28;20127;-63
2021/07/10 10:03:05;;;;;;;6.85;6.25;;;;;;;;;;5039490;28;20546;-63
2021/07/10 10:05:30;;;;;;;6.90;6.20;;;;;;;;;;5048358;28;20052;-63
2021/07/10 10:07:57;;;;;;;6.00;5.50;;;;;;;;;;5033037;28;20025;-63
2021/07/10 10:10:23;;;;;;;6.13;5.63;;;;;;;;;;5104481;28;20106;-63
2021/07/10 10:13:04;;;;;;;6.10;5.60;;;;;;;;;;5133129;28;20015;-64
2021/07/10 10:15:29;;;;;;;6.63;5.80;;;;;;;;;;5143545;27;20026;-63
2021/07/10 10:17:55;;;;;;;5.13;4.63;;;;;;;;;;5131854;27;20053;-64
2021/07/10 10:20:20;;;;;;;6.20;5.68;;;;;;;;;;5153243;27;20079;-64
2021/07/10 10:22:45;;;;;;;5.57;5.10;;;;;;;;;;5153779;27;20015;-64
2021/07/10 10:25:11;;;;;;;6.72;5.82;;;;;;;;;;5126498;28;20478;-64
2021/07/10 10:27:36;;;;;;;5.97;5.50;;;;;;;;;;5139222;27;20030;-64
2021/07/10 10:30:02;;;;;;;7.00;4.60;;;;;;;;;;5151883;27;20529;-64
2021/07/10 10:32:27;;;;;;;5.70;5.15;;;;;;;;;;5153149;27;20114;-64
2021/07/10 10:34:52;;;;;;;5.43;5.03;;;;;;;;;;5134111;27;20109;-64
2021/07/10 10:37:18;;;;;;;4.60;4.20;;;;;;;;;;5153089;27;20489;-64
2021/07/10 10:39:43;;;;;;;5.72;5.22;;;;;;;;;;5150054;27;20748;-64
2021/07/10 10:42:15;;;;;;;5.13;4.72;;;;;;;;;;5153130;27;20384;-64
2021/07/10 10:44:41;;;;;;;5.72;5.13;;;;;;;;;;5152745;27;20021;-64
2021/07/10 10:47:09;;;;;;;4.47;4.07;;;;;;;;;;5152925;27;20541;-63
2021/07/10 10:49:34;;;;;;;4.93;4.43;;;;;;;;;;5149870;27;20066;-63
2021/07/10 10:52:18;;;;;;;3.53;3.23;;;;;;;;;;5129516;28;20027;-63
2021/07/10 10:54:47;;;;;;;4.93;3.60;;;;;;;;;;5113670;28;20027;-63
2021/07/10 10:57:12;;;;;;;3.80;3.50;;;;;;;;;;5141611;27;20023;-64
2021/07/10 10:59:39;;;;;;;3.95;3.65;;;;;;;;;;5131313;27;20025;-63
2021/07/10 11:02:24;;;;;;;4.20;3.80;;;;;;;;;;5146019;27;20015;-64
2021/07/10 11:04:56;;;;;;;4.07;3.67;;;;;;;;;;5148154;27;20065;-63
2021/07/10 11:07:25;;;;;;;3.78;3.47;;;;;;;;;;5152456;27;20037;-64
2021/07/10 11:10:02;;;;;;;3.95;3.20;;;;;;;;;;5136797;27;20027;-63
2021/07/10 11:12:45;;;;;;;3.22;3.03;;;;;;;;;;5140678;27;20015;-64
2021/07/10 11:15:26;;;;;;;4.40;3.60;;;;;;;;;;5154317;27;20440;-64
2021/07/10 11:17:52;;;;;;;3.67;3.38;;;;;;;;;;5153443;27;20513;-64
2021/07/10 11:20:37;;;;;;;3.35;2.97;;;;;;;;;;5155290;27;20040;-64
2021/07/10 11:23:02;;;;;;;3.58;3.28;;;;;;;;;;5138726;27;20061;-64
2021/07/10 11:25:49;;;;;;;3.03;2.72;;;;;;;;;;5137684;27;20050;-64
2021/07/10 11:28:18;;;;;;;2.55;2.20;;;;;;;;;;5153858;27;20015;-63
2021/07/10 11:30:47;;;;;;;2.35;2.00;;;;;;;;;;5154317;27;20022;-64
2021/07/10 11:33:13;;;;;;;4.00;1.92;;;;;;;;;;5144026;27;20098;-64
2021/07/10 11:35:39;;;;;;;2.10;2.00;;;;;;;;;;5135634;27;20101;-64
2021/07/10 11:38:04;;;;;;;2.50;2.10;;;;;;;;;;5151230;27;20010;-64
2021/07/10 11:40:39;;;;;;;2.00;1.90;;;;;;;;;;5126740;27;20507;-64
2021/07/10 11:43:06;;;;;;;5.13;2.30;;;;;;;;;;5156191;27;20011;-64
2021/07/10 11:45:32;;;;;;;1.80;1.70;;;;;;;;;;5156095;27;20018;-64
2021/07/10 11:47:59;;;;;;;2.35;2.25;;;;;;;;;;5153341;27;20367;-64
2021/07/10 11:50:26;;;;;;;2.25;2.05;;;;;;;;;;5143657;27;20011;-64
2021/07/10 11:53:04;;;;;;;2.30;2.10;;;;;;;;;;5133332;27;20473;-64
2021/07/10 11:55:32;;;;;;;2.08;1.98;;;;;;;;;;5136872;27;20015;-64
2021/07/10 11:58:00;;;;;;;2.17;2.00;;;;;;;;;;5152876;27;20356;-64
2021/07/10 12:00:25;;;;;;;1.80;1.70;;;;;;;;;;5155117;27;20466;-64
2021/07/10 12:02:51;;;;;;;3.33;2.45;;;;;;;;;;5147812;27;20062;-64
2021/07/10 12:05:17;;;;;;;2.53;2.33;;;;;;;;;;5131506;27;20520;-64
2021/07/10 12:07:52;;;;;;;2.63;2.33;;;;;;;;;;5111047;28;20432;-64
2021/07/10 12:10:20;;;;;;;1.60;1.50;;;;;;;;;;5112796;28;20038;-64
2021/07/10 12:12:50;;;;;;;1.60;1.50;;;;;;;;;;5114793;28;20103;-64
2021/07/10 12:15:19;;;;;;;1.52;1.13;;;;;;;;;;5114641;28;20031;-64
2021/07/10 12:17:45;;;;;;;1.50;1.40;;;;;;;;;;5110880;28;20020;-64
2021/07/10 12:20:11;;;;;;;1.55;1.27;;;;;;;;;;5114017;28;20489;-64
2021/07/10 12:22:47;;;;;;;1.48;1.38;;;;;;;;;;5114351;28;20098;-64
2021/07/10 12:25:12;;;;;;;2.08;1.35;;;;;;;;;;5112801;28;20023;-64
2021/07/10 12:27:37;;;;;;;1.80;1.70;;;;;;;;;;5111456;28;20119;-64
2021/07/10 12:30:02;;;;;;;2.13;1.50;;;;;;;;;;5113246;28;20461;-64
2021/07/10 12:32:28;;;;;;;1.90;1.30;;;;;;;;;;5113775;28;20525;-64
2021/07/10 12:34:53;;;;;;;1.53;1.40;;;;;;;;;;5113905;28;20076;-64
2021/07/10 12:37:23;;;;;;;2.03;1.67;;;;;;;;;;5114040;28;20072;-64
2021/07/10 12:39:48;;;;;;;1.48;1.38;;;;;;;;;;5110421;28;20030;-64
2021/07/10 12:42:13;;;;;;;1.73;1.63;;;;;;;;;;5113958;28;20456;-64
2021/07/10 12:44:39;;;;;;;1.50;1.40;;;;;;;;;;5112480;28;20015;-64
2021/07/10 12:47:15;;;;;;;1.60;1.50;;;;;;;;;;5113790;28;20344;-62
2021/07/10 12:49:42;;;;;;;1.40;1.13;;;;;;;;;;5109998;28;20027;-62
2021/07/10 12:52:16;;;;;;;1.73;1.20;;;;;;;;;;5113862;28;20311;-62
2021/07/10 12:54:43;;;;;;;1.00;1.00;;;;;;;;;;5113256;28;20487;-63
2021/07/10 12:57:20;;;;;;;1.30;1.20;;;;;;;;;;5112248;28;20055;-63
2021/07/10 13:00:05;;;;;;;1.13;1.10;;;;;;;;;;5094065;28;20015;-63
2021/07/10 13:02:45;;;;;;;2.08;1.30;;;;;;;;;;5108128;28;20168;-63
2021/07/10 13:05:12;;;;;;;1.50;1.13;;;;;;;;;;5120399;27;20054;-63
2021/07/10 13:07:37;;;;;;;2.10;1.05;;;;;;;;;;5148960;27;20119;-63
2021/07/10 13:10:03;;;;;;;1.15;1.05;;;;;;;;;;5131358;27;20378;-63
2021/07/10 13:12:42;;;;;;;2.13;1.20;;;;;;;;;;5136358;27;20059;-63
2021/07/10 13:15:08;;;;;;;1.02;0.95;;;;;;;;;;5154575;27;20031;-63
2021/07/10 13:17:33;;;;;;;1.05;1.00;;;;;;;;;;5133849;27;20028;-63
2021/07/10 13:19:58;;;;;;;1.77;1.25;;;;;;;;;;5152226;27;20026;-63
2021/07/10 13:22:41;;;;;;;1.40;1.30;;;;;;;;;;5154498;27;20022;-63
2021/07/10 13:25:10;;;;;;;1.23;1.13;;;;;;;;;;5135085;27;20295;-63
2021/07/10 13:27:36;;;;;;;1.40;1.25;;;;;;;;;;5133791;27;20101;-63
2021/07/10 13:30:11;;;;;;;1.40;1.10;;;;;;;;;;5152680;27;20105;-63
2021/07/10 13:32:36;;;;;;;1.25;1.15;;;;;;;;;;5135624;27;20150;-64
2021/07/10 13:35:08;;;;;;;1.33;1.23;;;;;;;;;;5153432;27;20105;-64
2021/07/10 13:37:34;;;;;;;1.63;1.10;;;;;;;;;;5132659;27;20030;-64
2021/07/10 13:40:14;;;;;;;1.75;0.95;;;;;;;;;;5135563;27;20016;-64
2021/07/10 13:42:40;;;;;;;2.42;1.05;;;;;;;;;;5124043;27;20014;-64
2021/07/10 13:45:05;;;;;;;1.27;1.17;;;;;;;;;;5148480;27;20041;-64
2021/07/10 13:47:30;;;;;;;2.15;1.30;;;;;;;;;;5151858;27;20025;-63
2021/07/10 13:49:57;;;;;;;1.40;1.20;;;;;;;;;;5152225;27;20019;-64
2021/07/10 13:52:26;;;;;;;1.60;1.40;;;;;;;;;;5153988;27;20347;-64
2021/07/10 13:54:55;;;;;;;2.92;1.70;;;;;;;;;;5153193;27;20385;-64
2021/07/10 13:57:21;;;;;;;1.42;1.17;;;;;;;;;;5152899;27;20107;-64
2021/07/10 13:59:55;;;;;;;2.60;1.80;;;;;;;;;;5151213;27;20043;-63
2021/07/10 14:02:20;;;;;;;1.73;1.60;;;;;;;;;;5138950;27;20256;-63
2021/07/10 14:05:05;;;;;;;1.73;1.63;;;;;;;;;;5144587;27;20450;-63
2021/07/10 14:07:31;;;;;;;1.77;1.50;;;;;;;;;;5141652;27;20027;-63
2021/07/10 14:09:57;;;;;;;2.60;1.80;;;;;;;;;;5137081;27;20115;-63
2021/07/10 14:12:23;;;;;;;2.85;2.03;;;;;;;;;;5132943;27;20444;-63
2021/07/10 14:14:49;;;;;;;3.10;2.08;;;;;;;;;;5144940;27;20050;-63
2021/07/10 14:17:14;;;;;;;2.25;1.90;;;;;;;;;;5147998;27;20027;-63
2021/07/10 14:19:39;;;;;;;2.50;2.00;;;;;;;;;;5111064;28;20450;-63
2021/07/10 14:22:04;;;;;;;1.70;1.60;;;;;;;;;;5133020;28;20399;-64
2021/07/10 14:24:30;;;;;;;1.80;1.45;;;;;;;;;;5140941;27;20256;-64
2021/07/10 14:26:55;;;;;;;3.83;2.03;;;;;;;;;;5152753;27;20476;-63
2021/07/10 14:29:20;;;;;;;2.25;2.08;;;;;;;;;;5150558;27;20022;-63
2021/07/10 14:31:45;;;;;;;2.67;2.13;;;;;;;;;;5153744;27;20019;-63
2021/07/10 14:34:11;;;;;;;2.17;2.05;;;;;;;;;;5134584;27;20275;-64
2021/07/10 14:36:36;;;;;;;3.55;2.17;;;;;;;;;;5153038;27;20015;-65
2021/07/10 14:39:02;;;;;;;1.75;1.65;;;;;;;;;;5141427;27;20101;-64
2021/07/10 14:41:27;;;;;;;3.92;1.80;;;;;;;;;;5153132;27;20453;-66